CheckWX is a tool to help pilots better visualize weather data.  It is not intended as a substitute for an official pre-flight weather briefing.

19:06:26 UTC

KMHT TAF
Manchester-Boston Regional Airport
Manchester, New Hampshire, USA
KMHT 112335Z 1200/1224 18010G17KT P6SM FEW045 FM120400 17008KT P6SM BKN025 FM120700 21010KT P6SM BKN050

Jul-12@
00:00 UTC

Jul-12 @ 00:00 UTC

Jul-12@
04:00 UTC

Jul-12 @ 04:00 UTC

TAF KMHT 112335Z 1200/1224 18010G17KT P6SM FEW045

Expired

Wind
  • 180° at 10 KTS
  • {Gusting to 17 KTS
Cloud Levels
  • Few at 4,500' AGL

Jul-12@
04:00 UTC

Jul-12 @ 04:00 UTC

Jul-12@
07:00 UTC

Jul-12 @ 07:00 UTC

FM120400 17008KT P6SM BKN025

Expired

Wind
  • 170° at 8 KTS
Cloud Levels
  • Broken at 2,500' AGL

Jul-12@
07:00 UTC

Jul-12 @ 07:00 UTC

Jul-13@
00:00 UTC

Jul-13 @ 00:00 UTC

FM120700 21010KT P6SM BKN050

From

From Standard forecast or significant change

Wind
  • 210° at 10 KTS
Cloud Levels
  • Broken at 5,000' AGL